KLAS/LAS METAR and TAF weather

Enter ICAO airport designator
Station Type Date Time Source
KLAS METAR 2020/09/26 23:56 UTC NOAA

KLAS 262356Z VRB03KT 10SM BKN200 37/M07 A2982 RMK AO2 SLP070 HZ AND FU VC ALQDS T03721072 10372 20311 56019


Station Type Date Time Source
KLAS Decoded METAR 2020/09/26 23:56 UTC NOAA

MCCARRAN INTERNATIONAL AIRPORT , NV, United States (KLAS) 36-07N 115-16W 636M
Sep 26, 2020 - 07:56 PM EDT / 2020.09.26 2356 UTC
Wind: Variable at 3 MPH (3 KT):0
Visibility: 10 mile(s):0
Sky conditions: mostly cloudy
Temperature: 99.0 F (37.2 C)
Dew Point: 19.0 F (-7.2 C)
Relative Humidity: 5%
Pressure (altimeter): 29.82 in. Hg (1009 hPa)
Pressure tendency: 0.06 inches (1.9 hPa) lower than three hours ago
ob: KLAS 262356Z VRB03KT 10SM BKN200 37/M07 A2982 RMK AO2 SLP070 HZ AND FU VC ALQDS T03721072 10372 20311 56019
cycle: 0

Station Type Date Time Source
KLAS TAF 2020/09/26 21:54 UTC NOAA

TAF
AMD KLAS 262053Z 2621/2724 08007KT P6SM SKC
FM270300 21008KT P6SM SKC
FM271500 04008KT P6SM SKC

Example: see airport list